windsock image

Welcome to Bigfield Strip.

anemometer image
     

 Help for dials.  
 
Local Met:

Wind:   
10 Min average:  
223 ° / 3.9 kts (4.3)
212° / 2.0

Temperature:  
15.5°C C
Dew Point:  
12.6°C C
QNH:  
Trend:  
1016.1 mb mb
-0.5mb/hr
BigField Strip. This image updates approximately every minute, it can have a two minute delay.  
 

Humidity:  
83 %
Sunrise:   03:47z
Sunset:   20:26z
Updated:  
  UTC
 
   More met info, trends, radar, history etc. available here   

LUTON Metar   EGGW 280720Z AUTO VRB03KT 9999 NCD 15/11 Q1017
 
  TAF   2016/06/28 06:15 TAF TAF EGGW 280457Z 2806/2906 29004KT 9999 FEW035 BECMG 2809/2812 21010KT TEMPO 2815/2822 7000 RA PROB40 TEMPO 2818/2822 15009KT 4000 SHRA BKN005 BECMG 2822/2901 28011KT PROB40 TEMPO 2822/2906 9000 BKN009 BECMG 2903/2906 22007KT
 
BENSON Metar   EGUB 280650Z 17003KT CAVOK 14/10 Q1017 BLU NOSIG
 
  TAF   2016/06/28 06:03 TAF EGUB 280453Z 2806/2815 18003KT 9999 FEW020 PROB40 TEMPO 2808/2811 SCT020 TEMPO 2813/2815 6000 RA
 
Big Field view 1 icon   Big Field view 2 icon   Big Field view 3 icon   Chart AL3a in PDF icon   Chart AL3a in Word icon

WARNING:
This information is provided by the Airstrip unofficial weather station, DO NOT depend on the data provided here for any purpose.
This page is updated for latest Metars & TAF's every 5 minutes. Refresh the browser to check for the lastest.
Page designed for a minimum browser size of 1024x768.
© Copyright 2016 BigField Strip. This page auto generated 07:51 UTC - 28/06/2016   Contact Us
Valid HTML 4.01 Transitional     Windows uptime: 1 Days 5 Hours 19 Minutes 31 Seconds    WD started: 02:37 27/06/16    Free memory: 1499MB     Valid CSS!